createdAt,value
2018-10-21T00:01:31.803Z,20.60
2018-10-21T00:04:00.111Z,20.50
2018-10-21T00:06:28.704Z,20.50
2018-10-21T00:08:57.559Z,20.50
2018-10-21T00:11:26.070Z,20.50
2018-10-21T00:13:54.427Z,20.40
2018-10-21T00:16:23.016Z,20.50
2018-10-21T00:18:51.356Z,20.50
2018-10-21T00:21:19.668Z,20.30
2018-10-21T00:23:48.271Z,20.30
2018-10-21T00:26:16.871Z,20.30
2018-10-21T00:28:45.576Z,20.30
2018-10-21T00:31:13.955Z,20.30
2018-10-21T00:33:42.439Z,20.20
2018-10-21T00:36:10.675Z,20.10
2018-10-21T00:38:39.971Z,20.20
2018-10-21T00:41:08.277Z,20.20
2018-10-21T00:43:36.575Z,20.10
2018-10-21T00:46:05.556Z,20.10
2018-10-21T00:48:34.240Z,20.10
2018-10-21T00:51:02.642Z,20.10
2018-10-21T00:53:30.935Z,20.00
2018-10-21T00:55:59.263Z,20.00
2018-10-21T00:58:27.596Z,20.00
2018-10-21T01:00:55.865Z,19.90
2018-10-21T01:03:24.167Z,19.90
2018-10-21T01:05:52.403Z,19.90
2018-10-21T01:08:20.723Z,19.80
2018-10-21T01:10:49.406Z,19.80
2018-10-21T01:13:18.073Z,19.80
2018-10-21T01:15:46.383Z,19.70
2018-10-21T01:18:15.041Z,19.60
2018-10-21T01:20:43.724Z,19.60
2018-10-21T01:23:12.095Z,19.60
2018-10-21T01:25:40.393Z,19.60
2018-10-21T01:28:08.722Z,19.60
2018-10-21T01:30:37.532Z,19.50
2018-10-21T01:33:06.181Z,19.40
2018-10-21T01:35:34.433Z,19.40
2018-10-21T01:38:02.812Z,19.40
2018-10-21T01:40:35.764Z,19.40
2018-10-21T01:43:04.963Z,19.40
2018-10-21T01:45:33.495Z,19.30
2018-10-21T01:48:02.878Z,19.30
2018-10-21T01:50:31.325Z,19.40
2018-10-21T01:53:00.866Z,19.40
2018-10-21T01:55:29.443Z,19.30
2018-10-21T01:57:58.753Z,19.30
2018-10-21T02:00:27.654Z,19.30
2018-10-21T02:02:56.687Z,19.30
2018-10-21T02:05:25.427Z,19.20
2018-10-21T02:07:54.149Z,19.10
2018-10-21T02:10:22.470Z,19.10
2018-10-21T02:12:50.787Z,19.20
2018-10-21T02:15:19.328Z,19.10
2018-10-21T02:17:48.048Z,19.10
2018-10-21T02:20:17.004Z,19.00
2018-10-21T02:22:46.100Z,19.00
2018-10-21T02:25:14.951Z,18.90
2018-10-21T02:27:44.639Z,18.90
2018-10-21T02:30:15.783Z,18.90
2018-10-21T02:32:45.037Z,18.90
2018-10-21T02:35:13.861Z,18.80
2018-10-21T02:37:42.568Z,18.80
2018-10-21T02:41:28.283Z,18.80
2018-10-21T02:43:57.170Z,18.80
2018-10-21T02:46:25.742Z,18.60
2018-10-21T02:48:55.270Z,18.70
2018-10-21T02:51:23.751Z,18.60
2018-10-21T02:53:52.583Z,18.60
2018-10-21T02:56:20.902Z,18.60
2018-10-21T02:58:49.487Z,18.60
2018-10-21T03:01:18.186Z,18.60
2018-10-21T03:03:46.987Z,18.60
2018-10-21T03:06:15.494Z,18.60
2018-10-21T03:08:44.036Z,18.60
2018-10-21T03:11:12.573Z,18.70
2018-10-21T03:13:40.927Z,18.50
2018-10-21T03:16:09.206Z,18.50
2018-10-21T03:18:37.519Z,18.50
2018-10-21T03:21:05.950Z,18.50
2018-10-21T03:23:34.580Z,18.50
2018-10-21T03:26:03.235Z,18.40
2018-10-21T03:28:32.312Z,18.30
2018-10-21T03:31:00.812Z,18.30
2018-10-21T03:33:29.335Z,18.30
2018-10-21T03:35:57.880Z,18.30
2018-10-21T03:38:26.426Z,18.30
2018-10-21T03:40:54.755Z,18.20
2018-10-21T03:43:23.235Z,18.20
2018-10-21T03:45:51.571Z,18.20
2018-10-21T03:48:19.843Z,18.10
2018-10-21T03:50:48.479Z,18.10
2018-10-21T03:53:17.175Z,18.00
2018-10-21T03:55:45.480Z,18.00
2018-10-21T03:58:13.859Z,18.00
2018-10-21T04:00:42.104Z,18.00
2018-10-21T04:03:10.413Z,17.90
2018-10-21T04:05:39.081Z,17.90
2018-10-21T04:08:07.376Z,17.90
2018-10-21T04:10:36.150Z,17.90
2018-10-21T04:13:04.653Z,17.90
2018-10-21T04:15:32.928Z,18.00
2018-10-21T04:18:01.367Z,17.90
2018-10-21T04:20:30.208Z,17.90
2018-10-21T04:23:01.415Z,17.80
2018-10-21T04:25:31.241Z,17.90
2018-10-21T04:28:00.410Z,17.90
2018-10-21T04:30:30.701Z,17.90
2018-10-21T04:34:08.150Z,17.80
2018-10-21T04:36:36.846Z,17.80
2018-10-21T04:39:48.667Z,17.80
2018-10-21T04:42:17.313Z,17.80
2018-10-21T04:44:45.631Z,17.70
2018-10-21T04:47:13.928Z,17.70
2018-10-21T04:49:44.243Z,17.70
2018-10-21T04:52:12.545Z,17.70
2018-10-21T04:54:40.813Z,17.60
2018-10-21T04:57:09.472Z,17.60
2018-10-21T04:59:39.076Z,17.50
2018-10-21T05:02:07.739Z,17.50
2018-10-21T05:04:36.463Z,17.50
2018-10-21T05:07:05.154Z,17.50
2018-10-21T05:09:33.475Z,17.50
2018-10-21T05:12:01.733Z,17.50
2018-10-21T05:14:33.043Z,17.50
2018-10-21T05:17:01.754Z,17.40
2018-10-21T05:19:30.396Z,17.40
2018-10-21T05:21:58.708Z,17.30
2018-10-21T05:24:27.355Z,17.30
2018-10-21T05:26:55.975Z,17.20
2018-10-21T05:29:24.228Z,17.20
2018-10-21T05:31:52.471Z,17.20
2018-10-21T05:34:20.732Z,17.20
2018-10-21T05:36:49.070Z,17.20
2018-10-21T05:39:17.391Z,17.20
2018-10-21T05:41:45.690Z,17.20
2018-10-21T05:44:14.339Z,17.10
2018-10-21T05:46:46.510Z,17.10
2018-10-21T05:49:15.288Z,17.10
2018-10-21T05:51:45.048Z,17.10
2018-10-21T05:54:14.436Z,17.00
2018-10-21T05:56:44.009Z,17.00
2018-10-21T05:59:12.687Z,17.00
2018-10-21T06:01:41.487Z,17.00
2018-10-21T06:04:10.729Z,17.00
2018-10-21T06:06:39.311Z,17.00
2018-10-21T06:09:10.331Z,17.00
2018-10-21T06:11:38.668Z,16.90
2018-10-21T06:14:07.519Z,16.80
2018-10-21T06:16:41.475Z,16.80
2018-10-21T06:19:12.596Z,16.80
2018-10-21T06:21:42.275Z,16.90
2018-10-21T06:24:10.560Z,16.90
2018-10-21T06:26:38.833Z,16.80
2018-10-21T06:29:07.107Z,16.80
2018-10-21T06:31:35.668Z,16.80
2018-10-21T06:34:04.131Z,16.80
2018-10-21T06:36:32.382Z,16.70
2018-10-21T06:39:00.630Z,16.80
2018-10-21T06:41:29.229Z,16.80
2018-10-21T06:43:57.779Z,16.80
2018-10-21T06:46:26.111Z,16.80
2018-10-21T06:48:54.671Z,16.80
2018-10-21T06:51:23.354Z,16.80
2018-10-21T06:53:51.963Z,16.80
2018-10-21T06:56:20.571Z,16.80
2018-10-21T06:58:52.519Z,16.80
2018-10-21T07:01:20.795Z,16.80
2018-10-21T07:03:49.323Z,16.80
2018-10-21T07:06:24.455Z,16.90
2018-10-21T07:08:53.931Z,16.80
2018-10-21T07:11:30.828Z,16.90
2018-10-21T07:13:59.114Z,16.90
2018-10-21T07:16:27.545Z,16.90
2018-10-21T07:18:56.146Z,16.90
2018-10-21T07:21:24.877Z,16.80
2018-10-21T07:23:53.539Z,16.90
2018-10-21T07:26:22.010Z,16.90
2018-10-21T07:28:51.051Z,17.00
2018-10-21T07:31:19.470Z,17.10
2018-10-21T07:33:47.742Z,17.20
2018-10-21T07:36:16.125Z,17.30
2018-10-21T07:38:44.382Z,17.40
2018-10-21T07:41:12.726Z,17.50
2018-10-21T07:43:41.011Z,17.50
2018-10-21T07:46:09.565Z,17.60
2018-10-21T07:48:38.289Z,17.70
2018-10-21T07:51:07.074Z,17.70
2018-10-21T07:53:35.416Z,17.90
2018-10-21T07:56:03.711Z,17.90
2018-10-21T07:58:31.972Z,18.00
2018-10-21T08:01:00.318Z,18.00
2018-10-21T08:03:28.650Z,18.10
2018-10-21T08:06:17.727Z,18.20
2018-10-21T08:08:46.043Z,18.30
2018-10-21T08:11:14.524Z,18.40
2018-10-21T08:13:42.815Z,18.50
2018-10-21T08:16:11.197Z,18.60
2018-10-21T08:18:39.500Z,18.70
2018-10-21T08:21:07.813Z,18.70
2018-10-21T08:23:36.173Z,18.70
2018-10-21T08:26:04.663Z,18.80
2018-10-21T08:28:32.979Z,18.80
2018-10-21T08:31:01.333Z,18.90
2018-10-21T08:33:29.727Z,18.90
2018-10-21T08:35:58.053Z,19.00
2018-10-21T08:38:26.315Z,19.00
2018-10-21T08:40:54.607Z,19.10
2018-10-21T08:43:22.902Z,19.20
2018-10-21T08:45:51.275Z,19.30
2018-10-21T08:48:19.630Z,19.40
2018-10-21T08:50:47.899Z,19.50
2018-10-21T08:53:16.204Z,19.50
2018-10-21T08:55:44.595Z,19.70
2018-10-21T08:58:12.915Z,19.80
2018-10-21T09:00:41.312Z,20.00
2018-10-21T09:03:09.667Z,20.10
2018-10-21T09:05:37.988Z,20.20
2018-10-21T09:08:06.344Z,20.30
2018-10-21T09:10:34.881Z,20.40
2018-10-21T09:13:03.216Z,20.50
2018-10-21T09:15:31.795Z,20.50
2018-10-21T09:18:00.055Z,20.60
2018-10-21T09:20:28.307Z,20.70
2018-10-21T09:22:56.563Z,20.80
2018-10-21T09:25:25.275Z,20.90
2018-10-21T09:27:53.624Z,21.00
2018-10-21T09:30:21.980Z,21.10
2018-10-21T09:32:50.651Z,21.20
2018-10-21T09:35:19.263Z,21.40
2018-10-21T09:37:47.894Z,21.50
2018-10-21T09:40:17.501Z,21.70
2018-10-21T09:42:46.248Z,21.90
2018-10-21T09:45:15.961Z,22.00
2018-10-21T09:47:44.518Z,22.20
2018-10-21T09:50:13.059Z,22.30
2018-10-21T09:52:41.465Z,22.40
2018-10-21T09:55:14.597Z,22.50
2018-10-21T09:57:43.648Z,22.70
2018-10-21T10:00:12.151Z,22.80
2018-10-21T10:02:45.999Z,22.90
2018-10-21T10:05:14.613Z,23.00
2018-10-21T10:07:42.907Z,23.10
2018-10-21T10:10:11.459Z,23.30
2018-10-21T10:12:39.803Z,23.40
2018-10-21T10:15:34.361Z,23.60
2018-10-21T10:18:02.643Z,23.70
2018-10-21T10:20:31.215Z,23.80
2018-10-21T10:22:59.480Z,24.00
2018-10-21T10:25:28.040Z,24.00
2018-10-21T10:27:56.372Z,24.10
2018-10-21T10:30:25.036Z,24.00
2018-10-21T10:32:53.548Z,24.00
2018-10-21T10:35:22.030Z,24.00
2018-10-21T10:37:50.519Z,24.00
2018-10-21T10:40:19.312Z,24.10
2018-10-21T10:42:47.552Z,24.20
2018-10-21T10:45:16.387Z,24.30
2018-10-21T10:47:45.068Z,24.30
2018-10-21T10:50:13.388Z,24.40
2018-10-21T10:52:41.631Z,24.40
2018-10-21T10:55:10.242Z,24.40
2018-10-21T10:57:38.613Z,24.40
2018-10-21T11:00:09.033Z,24.40
2018-10-21T11:02:37.450Z,24.70
2018-10-21T11:05:06.433Z,24.70
2018-10-21T11:07:34.829Z,24.90
2018-10-21T11:10:03.269Z,25.10
2018-10-21T11:12:31.545Z,25.30
2018-10-21T11:15:45.521Z,25.50
2018-10-21T11:18:13.812Z,25.60
2018-10-21T11:20:42.467Z,25.90
2018-10-21T11:23:11.089Z,25.90
2018-10-21T11:25:39.399Z,26.10
2018-10-21T11:28:08.234Z,26.20
2018-10-21T11:30:37.694Z,26.40
2018-10-21T11:33:06.326Z,26.50
2018-10-21T11:35:34.616Z,26.70
2018-10-21T11:38:02.952Z,26.60
2018-10-21T11:40:31.706Z,26.70
2018-10-21T11:43:00.075Z,26.80
2018-10-21T11:45:28.465Z,27.00
2018-10-21T11:47:57.058Z,27.20
2018-10-21T11:50:25.349Z,27.20
2018-10-21T11:52:53.846Z,27.30
2018-10-21T11:55:22.379Z,27.20
2018-10-21T11:57:50.858Z,27.20
2018-10-21T12:00:19.439Z,27.20
2018-10-21T12:02:47.805Z,27.00
2018-10-21T12:05:16.127Z,26.90
2018-10-21T12:07:44.776Z,26.80
2018-10-21T12:10:13.189Z,26.60
2018-10-21T12:12:41.472Z,26.60
2018-10-21T12:15:56.205Z,26.80
2018-10-21T12:18:24.584Z,27.00
2018-10-21T12:20:52.959Z,26.90
2018-10-21T12:23:21.337Z,27.00
2018-10-21T12:25:49.865Z,27.10
2018-10-21T12:28:18.477Z,27.30
2018-10-21T12:30:46.831Z,27.40
2018-10-21T12:33:15.427Z,27.40
2018-10-21T12:35:44.108Z,27.20
2018-10-21T12:38:12.434Z,27.10
2018-10-21T12:40:40.787Z,27.00
2018-10-21T12:43:09.144Z,27.00
2018-10-21T12:45:37.453Z,26.90
2018-10-21T12:48:06.016Z,26.80
2018-10-21T12:50:34.614Z,26.80
2018-10-21T12:53:02.929Z,26.80
2018-10-21T12:55:31.426Z,26.80
2018-10-21T12:57:59.756Z,26.70
2018-10-21T13:00:28.043Z,26.80
2018-10-21T13:02:56.313Z,26.90
2018-10-21T13:05:24.812Z,27.10
2018-10-21T13:07:53.432Z,27.10
2018-10-21T13:10:21.958Z,27.30
2018-10-21T13:12:50.308Z,27.40
2018-10-21T13:16:08.920Z,27.60
2018-10-21T13:18:37.298Z,27.80
2018-10-21T13:21:05.678Z,27.90
2018-10-21T13:23:34.019Z,28.10
2018-10-21T13:26:02.423Z,28.20
2018-10-21T13:28:31.084Z,28.30
2018-10-21T13:30:59.325Z,28.40
2018-10-21T13:33:27.607Z,28.50
2018-10-21T13:35:56.112Z,28.60
2018-10-21T13:38:24.434Z,28.70
2018-10-21T13:40:53.078Z,28.70
2018-10-21T13:43:21.420Z,28.80
2018-10-21T13:45:50.177Z,28.70
2018-10-21T13:48:18.488Z,28.80
2018-10-21T13:50:46.857Z,28.90
2018-10-21T13:53:15.197Z,29.00
2018-10-21T13:55:43.479Z,29.00
2018-10-21T13:58:12.193Z,29.00
2018-10-21T14:00:40.810Z,29.00
2018-10-21T14:03:09.253Z,29.10
2018-10-21T14:05:37.542Z,29.20
2018-10-21T14:08:06.299Z,29.20
2018-10-21T14:10:34.884Z,29.30
2018-10-21T14:13:03.195Z,29.30
2018-10-21T14:18:50.665Z,29.40
2018-10-21T14:21:18.930Z,29.30
2018-10-21T14:23:47.175Z,29.30
2018-10-21T14:26:15.471Z,29.20
2018-10-21T14:28:43.788Z,29.20
2018-10-21T14:31:12.439Z,29.10
2018-10-21T14:33:40.698Z,29.00
2018-10-21T14:36:09.063Z,29.00
2018-10-21T14:38:37.323Z,28.90
2018-10-21T14:41:05.670Z,28.80
2018-10-21T14:43:33.992Z,28.60
2018-10-21T14:46:02.842Z,28.60
2018-10-21T14:48:30.994Z,28.50
2018-10-21T14:50:59.320Z,28.40
2018-10-21T14:53:27.654Z,28.30
2018-10-21T14:55:56.015Z,28.20
2018-10-21T14:58:24.240Z,28.20
2018-10-21T15:00:52.558Z,28.20
2018-10-21T15:03:20.879Z,28.00
2018-10-21T15:05:49.207Z,28.00
2018-10-21T15:08:18.063Z,27.90
2018-10-21T15:10:46.350Z,27.80
2018-10-21T15:13:14.620Z,27.80
2018-10-21T15:19:01.522Z,27.60
2018-10-21T15:21:29.793Z,27.60
2018-10-21T15:23:58.092Z,27.50
2018-10-21T15:26:26.376Z,27.40
2018-10-21T15:28:54.641Z,27.30
2018-10-21T15:31:23.142Z,27.10
2018-10-21T15:33:52.121Z,27.00
2018-10-21T15:36:20.460Z,26.80
2018-10-21T15:38:48.795Z,26.70
2018-10-21T15:41:17.367Z,26.60
2018-10-21T15:43:46.251Z,26.40
2018-10-21T15:46:14.641Z,26.30
2018-10-21T15:48:42.911Z,26.30
2018-10-21T15:51:11.204Z,26.20
2018-10-21T15:53:39.539Z,26.10
2018-10-21T15:56:07.906Z,26.00
2018-10-21T15:58:36.439Z,26.00
2018-10-21T16:01:04.868Z,25.90
2018-10-21T16:03:33.163Z,25.90
2018-10-21T16:06:01.452Z,25.80
2018-10-21T16:08:30.020Z,25.60
2018-10-21T16:10:58.341Z,25.60
2018-10-21T16:13:26.940Z,25.50
2018-10-21T16:16:48.477Z,25.50
2018-10-21T16:19:16.775Z,25.40
2018-10-21T16:21:45.074Z,25.10
2018-10-21T16:24:13.359Z,24.90
2018-10-21T16:26:41.639Z,24.80
2018-10-21T16:29:09.992Z,24.60
2018-10-21T16:31:38.294Z,24.40
2018-10-21T16:34:06.617Z,24.20
2018-10-21T16:36:34.897Z,24.10
2018-10-21T16:39:04.425Z,23.90
2018-10-21T16:41:33.703Z,23.80
2018-10-21T16:44:01.995Z,23.70
2018-10-21T16:46:30.329Z,23.60
2018-10-21T16:48:58.648Z,23.50
2018-10-21T16:51:27.051Z,23.30
2018-10-21T16:53:55.301Z,23.20
2018-10-21T16:56:23.641Z,23.10
2018-10-21T16:58:51.884Z,23.10
2018-10-21T17:01:20.200Z,23.00
2018-10-21T17:03:48.737Z,22.90
2018-10-21T17:06:17.100Z,22.80
2018-10-21T17:08:45.495Z,22.70
2018-10-21T17:11:13.754Z,22.60
2018-10-21T17:13:42.069Z,22.50
2018-10-21T17:19:30.028Z,22.50
2018-10-21T17:21:58.341Z,22.40
2018-10-21T17:24:26.656Z,22.40
2018-10-21T17:26:54.954Z,22.20
2018-10-21T17:29:23.204Z,22.30
2018-10-21T17:31:51.616Z,22.20
2018-10-21T17:34:19.950Z,22.10
2018-10-21T17:36:49.170Z,21.90
2018-10-21T17:39:24.616Z,21.60
2018-10-21T17:41:56.914Z,21.60
2018-10-21T17:44:33.891Z,21.50
2018-10-21T17:47:11.455Z,21.30
2018-10-21T17:49:41.658Z,21.20
2018-10-21T17:52:22.130Z,21.30
2018-10-21T17:54:50.411Z,21.30
2018-10-21T17:57:18.763Z,21.20
2018-10-21T17:59:47.517Z,21.10
2018-10-21T18:02:16.107Z,21.20
2018-10-21T18:04:46.080Z,21.00
2018-10-21T18:07:14.834Z,20.90
2018-10-21T18:09:45.916Z,20.80
2018-10-21T18:12:14.280Z,20.70
2018-10-21T18:15:08.377Z,20.70
2018-10-21T18:17:37.399Z,20.60
2018-10-21T18:20:06.824Z,20.50
2018-10-21T18:22:35.206Z,20.40
2018-10-21T18:25:03.903Z,20.50
2018-10-21T18:27:32.513Z,20.40
2018-10-21T18:30:01.041Z,20.20
2018-10-21T18:32:29.805Z,20.20
2018-10-21T18:34:59.016Z,20.20
2018-10-21T18:37:27.694Z,20.20
2018-10-21T18:39:56.364Z,20.10
2018-10-21T18:42:25.064Z,20.00
2018-10-21T18:44:55.687Z,19.90
2018-10-21T18:47:24.631Z,19.80
2018-10-21T18:49:53.415Z,19.80
2018-10-21T18:52:23.076Z,19.70
2018-10-21T18:54:51.947Z,19.70
2018-10-21T18:57:21.610Z,19.70
2018-10-21T18:59:50.219Z,19.60
2018-10-21T19:02:19.101Z,19.70
2018-10-21T19:04:49.813Z,19.70
2018-10-21T19:07:18.539Z,19.60
2018-10-21T19:09:49.696Z,19.60
2018-10-21T19:12:18.821Z,19.60
2018-10-21T19:15:12.697Z,19.60
2018-10-21T19:17:41.693Z,19.60
2018-10-21T19:20:14.156Z,19.60
2018-10-21T19:22:42.891Z,19.60
2018-10-21T19:25:12.983Z,19.60
2018-10-21T19:27:41.886Z,19.60
2018-10-21T19:30:11.454Z,19.50
2018-10-21T19:32:40.390Z,19.50
2018-10-21T19:35:09.817Z,19.40
2018-10-21T19:37:38.381Z,19.50
2018-10-21T19:40:07.803Z,19.50
2018-10-21T19:42:36.015Z,19.50
2018-10-21T19:45:04.880Z,19.60
2018-10-21T19:47:33.263Z,19.50
2018-10-21T19:50:01.892Z,19.40
2018-10-21T19:52:30.358Z,19.40
2018-10-21T19:54:58.762Z,19.40
2018-10-21T19:57:27.162Z,19.40
2018-10-21T19:59:55.540Z,19.40
2018-10-21T20:02:23.874Z,19.30
2018-10-21T20:04:52.248Z,19.20
2018-10-21T20:07:21.564Z,19.20
2018-10-21T20:09:49.951Z,19.30
2018-10-21T20:12:18.472Z,19.20
2018-10-21T20:15:20.211Z,19.30
2018-10-21T20:17:48.475Z,19.20
2018-10-21T20:20:16.803Z,19.20
2018-10-21T20:22:45.101Z,19.10
2018-10-21T20:25:13.428Z,19.10
2018-10-21T20:30:38.049Z,18.90
2018-10-21T20:33:06.336Z,19.00
2018-10-21T20:35:35.327Z,19.00
2018-10-21T20:38:03.673Z,19.00
2018-10-21T20:40:32.566Z,18.90
2018-10-21T20:43:00.826Z,18.90
2018-10-21T20:45:29.189Z,18.90
2018-10-21T20:47:57.566Z,18.90
2018-10-21T20:50:25.996Z,18.80
2018-10-21T20:52:54.303Z,18.80
2018-10-21T20:55:22.731Z,18.80
2018-10-21T20:57:51.183Z,18.80
2018-10-21T21:00:19.507Z,18.80
2018-10-21T21:02:47.807Z,18.70
2018-10-21T21:05:16.168Z,18.70
2018-10-21T21:07:44.511Z,18.60
2018-10-21T21:10:12.871Z,18.60
2018-10-21T21:12:41.225Z,18.50
2018-10-21T21:15:50.759Z,18.50
2018-10-21T21:18:19.173Z,18.50
2018-10-21T21:20:47.563Z,18.40
2018-10-21T21:23:15.834Z,18.50
2018-10-21T21:25:44.101Z,18.40
2018-10-21T21:28:12.489Z,18.40
2018-10-21T21:30:40.863Z,18.40
2018-10-21T21:33:09.347Z,18.30
2018-10-21T21:35:37.828Z,18.30
2018-10-21T21:38:06.207Z,18.30
2018-10-21T21:40:34.483Z,18.20
2018-10-21T21:43:02.815Z,18.20
2018-10-21T21:45:31.231Z,18.20
2018-10-21T21:47:59.676Z,18.10
2018-10-21T21:50:27.983Z,18.10
2018-10-21T21:52:56.338Z,18.10
2018-10-21T21:55:24.593Z,18.00
2018-10-21T21:57:52.904Z,18.00
2018-10-21T22:00:21.235Z,18.00
2018-10-21T22:02:49.467Z,18.00
2018-10-21T22:05:17.758Z,17.90
2018-10-21T22:07:46.017Z,17.90
2018-10-21T22:10:14.398Z,17.80
2018-10-21T22:12:43.576Z,17.80
2018-10-21T22:15:11.879Z,17.80
2018-10-21T22:17:40.843Z,17.80
2018-10-21T22:20:09.363Z,17.70
2018-10-21T22:22:37.609Z,17.70
2018-10-21T22:25:06.105Z,17.70
2018-10-21T22:27:34.579Z,17.70
2018-10-21T22:30:02.967Z,17.70
2018-10-21T22:32:31.308Z,17.60
2018-10-21T22:34:59.628Z,17.60
2018-10-21T22:37:27.891Z,17.60
2018-10-21T22:39:56.236Z,17.50
2018-10-21T22:42:24.519Z,17.50
2018-10-21T22:44:52.819Z,17.50
2018-10-21T22:47:22.491Z,17.50
2018-10-21T22:49:51.123Z,17.50
2018-10-21T22:52:19.597Z,17.50
2018-10-21T22:54:49.002Z,17.50
2018-10-21T22:57:18.393Z,17.50
2018-10-21T22:59:49.659Z,17.40
2018-10-21T23:02:17.955Z,17.40
2018-10-21T23:04:48.099Z,17.30
2018-10-21T23:07:16.425Z,17.30
2018-10-21T23:09:47.222Z,17.30
2018-10-21T23:12:15.667Z,17.20
2018-10-21T23:14:45.757Z,17.30
2018-10-21T23:17:14.098Z,17.20
2018-10-21T23:19:43.559Z,17.20
2018-10-21T23:22:12.021Z,17.10
2018-10-21T23:24:40.687Z,17.10
2018-10-21T23:27:11.024Z,17.00
2018-10-21T23:29:40.144Z,17.10
2018-10-21T23:32:08.880Z,17.00
2018-10-21T23:34:37.198Z,17.00
2018-10-21T23:37:05.564Z,16.90
2018-10-21T23:39:33.824Z,16.90
2018-10-21T23:42:02.421Z,16.90
2018-10-21T23:44:31.156Z,16.90
2018-10-21T23:46:59.735Z,16.90
2018-10-21T23:49:28.394Z,16.80
2018-10-21T23:51:56.731Z,16.80
2018-10-21T23:54:25.019Z,16.80
2018-10-21T23:56:53.372Z,16.80
2018-10-21T23:59:21.763Z,16.80
